createdAt,value
2019-02-17T00:00:43.654Z,47.76
2019-02-17T00:01:47.184Z,47.90
2019-02-17T00:02:50.696Z,48.10
2019-02-17T00:03:54.272Z,48.03
2019-02-17T00:04:57.716Z,47.93
2019-02-17T00:06:01.222Z,48.01
2019-02-17T00:07:04.815Z,48.25
2019-02-17T00:08:08.285Z,48.28
2019-02-17T00:09:11.782Z,48.08
2019-02-17T00:10:15.283Z,48.05
2019-02-17T00:11:18.718Z,47.85
2019-02-17T00:12:22.172Z,47.82
2019-02-17T00:13:25.634Z,47.81
2019-02-17T00:14:29.063Z,47.85
2019-02-17T00:15:32.492Z,48.01
2019-02-17T00:16:35.943Z,48.23
2019-02-17T00:17:39.371Z,48.30
2019-02-17T00:18:42.820Z,48.16
2019-02-17T00:19:46.262Z,48.04
2019-02-17T00:20:49.771Z,47.89
2019-02-17T00:21:53.200Z,47.90
2019-02-17T00:22:56.629Z,47.79
2019-02-17T00:24:00.153Z,47.84
2019-02-17T00:25:04.091Z,48.14
2019-02-17T00:26:07.523Z,48.25
2019-02-17T00:27:11.053Z,48.33
2019-02-17T00:28:14.584Z,48.81
2019-02-17T00:29:18.022Z,49.03
2019-02-17T00:30:21.459Z,48.91
2019-02-17T00:31:24.893Z,48.77
2019-02-17T00:32:28.329Z,48.79
2019-02-17T00:33:31.768Z,48.76
2019-02-17T00:34:35.230Z,48.61
2019-02-17T00:35:38.686Z,48.39
2019-02-17T00:36:42.107Z,48.22
2019-02-17T00:37:45.545Z,48.14
2019-02-17T00:38:48.977Z,48.02
2019-02-17T00:39:52.428Z,48.03
2019-02-17T00:40:55.858Z,48.25
2019-02-17T00:41:59.366Z,48.27
2019-02-17T00:43:03.030Z,48.69
2019-02-17T00:44:06.474Z,48.94
2019-02-17T00:45:10.183Z,49.02
2019-02-17T00:46:13.616Z,49.32
2019-02-17T00:47:17.068Z,49.28
2019-02-17T00:48:20.520Z,49.53
2019-02-17T00:49:24.000Z,49.32
2019-02-17T00:50:27.457Z,49.36
2019-02-17T00:51:30.898Z,49.52
2019-02-17T00:52:34.343Z,49.63
2019-02-17T00:53:37.862Z,49.85
2019-02-17T00:54:41.309Z,50.39
2019-02-17T00:55:44.775Z,50.44
2019-02-17T00:56:48.225Z,50.46
2019-02-17T00:57:51.676Z,50.25
2019-02-17T00:58:55.091Z,49.87
2019-02-17T00:59:58.519Z,49.64
2019-02-17T01:01:01.990Z,49.40
2019-02-17T01:02:05.493Z,49.37
2019-02-17T01:03:08.927Z,49.50
2019-02-17T01:04:12.438Z,49.38
2019-02-17T01:05:15.953Z,49.47
2019-02-17T01:06:19.431Z,49.42
2019-02-17T01:07:23.007Z,49.73
2019-02-17T01:08:26.445Z,50.06
2019-02-17T01:09:30.280Z,50.21
2019-02-17T01:10:33.820Z,50.17
2019-02-17T01:11:37.375Z,49.91
2019-02-17T01:12:40.848Z,49.83
2019-02-17T01:13:44.351Z,49.86
2019-02-17T01:14:47.787Z,49.84
2019-02-17T01:15:51.308Z,50.06
2019-02-17T01:16:54.763Z,50.03
2019-02-17T01:17:58.291Z,50.10
2019-02-17T01:19:01.724Z,50.30
2019-02-17T01:20:07.625Z,50.52
2019-02-17T01:21:11.057Z,50.77
2019-02-17T01:22:14.517Z,50.93
2019-02-17T01:23:17.971Z,51.20
2019-02-17T01:24:21.567Z,51.13
2019-02-17T01:25:25.083Z,51.15
2019-02-17T01:26:28.578Z,51.04
2019-02-17T01:27:32.029Z,51.02
2019-02-17T01:28:35.467Z,50.99
2019-02-17T01:29:38.904Z,50.97
2019-02-17T01:30:42.335Z,50.90
2019-02-17T01:31:45.780Z,51.25
2019-02-17T01:32:49.294Z,51.59
2019-02-17T01:33:52.757Z,51.92
2019-02-17T01:34:56.209Z,51.95
2019-02-17T01:35:59.642Z,52.04
2019-02-17T01:37:03.170Z,52.14
2019-02-17T01:38:06.637Z,52.41
2019-02-17T01:39:10.094Z,52.38
2019-02-17T01:40:13.597Z,52.33
2019-02-17T01:41:17.140Z,52.44
2019-02-17T01:42:20.843Z,52.30
2019-02-17T01:43:24.311Z,52.32
2019-02-17T01:44:27.862Z,52.28
2019-02-17T01:45:31.456Z,52.28
2019-02-17T01:46:34.896Z,52.10
2019-02-17T01:47:38.411Z,51.96
2019-02-17T01:48:41.863Z,51.91
2019-02-17T01:49:45.322Z,51.36
2019-02-17T01:50:48.769Z,51.39
2019-02-17T01:51:52.286Z,51.43
2019-02-17T01:52:55.736Z,51.31
2019-02-17T01:53:59.200Z,51.49
2019-02-17T01:55:02.641Z,51.53
2019-02-17T01:56:06.239Z,51.68
2019-02-17T01:57:09.739Z,51.50
2019-02-17T01:58:13.350Z,51.35
2019-02-17T01:59:16.892Z,51.33
2019-02-17T02:00:20.451Z,51.36
2019-02-17T02:01:23.954Z,51.40
2019-02-17T02:02:27.456Z,51.58
2019-02-17T02:03:30.895Z,51.80
2019-02-17T02:04:34.363Z,51.93
2019-02-17T02:05:37.937Z,52.04
2019-02-17T02:06:41.503Z,52.26
2019-02-17T02:07:44.952Z,52.34
2019-02-17T02:08:48.382Z,52.27
2019-02-17T02:09:51.830Z,52.37
2019-02-17T02:10:55.415Z,52.66
2019-02-17T02:11:58.934Z,52.73
2019-02-17T02:13:02.442Z,52.77
2019-02-17T02:14:06.536Z,52.87
2019-02-17T02:15:11.259Z,53.02
2019-02-17T02:16:14.739Z,53.11
2019-02-17T02:17:18.267Z,52.97
2019-02-17T02:18:21.769Z,53.08
2019-02-17T02:19:25.206Z,53.18
2019-02-17T02:20:29.345Z,53.21
2019-02-17T02:21:32.780Z,53.35
2019-02-17T02:22:36.212Z,53.37
2019-02-17T02:23:39.643Z,53.44
2019-02-17T02:24:43.075Z,53.57
2019-02-17T02:25:46.537Z,53.57
2019-02-17T02:26:49.978Z,53.49
2019-02-17T02:27:53.418Z,53.45
2019-02-17T02:28:56.846Z,53.48
2019-02-17T02:30:00.340Z,53.58
2019-02-17T02:31:03.838Z,53.66
2019-02-17T02:32:07.303Z,53.87
2019-02-17T02:33:10.801Z,53.96
2019-02-17T02:34:14.242Z,54.23
2019-02-17T02:35:17.690Z,54.35
2019-02-17T02:36:21.126Z,54.54
2019-02-17T02:37:24.644Z,54.54
2019-02-17T02:38:28.140Z,54.83
2019-02-17T02:39:31.711Z,55.16
2019-02-17T02:40:35.144Z,55.21
2019-02-17T02:41:38.606Z,55.44
2019-02-17T02:42:42.050Z,55.59
2019-02-17T02:43:45.480Z,55.43
2019-02-17T02:44:48.914Z,55.29
2019-02-17T02:45:52.419Z,55.72
2019-02-17T02:46:55.867Z,55.83
2019-02-17T02:47:59.317Z,55.93
2019-02-17T02:49:02.758Z,55.86
2019-02-17T02:50:09.339Z,55.88
2019-02-17T02:51:12.827Z,55.86
2019-02-17T02:52:16.294Z,55.72
2019-02-17T02:53:19.731Z,55.73
2019-02-17T02:54:23.161Z,55.78
2019-02-17T02:55:26.616Z,55.87
2019-02-17T02:56:30.043Z,56.04
2019-02-17T02:57:33.500Z,56.13
2019-02-17T02:58:36.934Z,56.26
2019-02-17T02:59:41.927Z,56.15
2019-02-17T03:00:45.610Z,56.03
2019-02-17T03:01:49.045Z,56.13
2019-02-17T03:02:52.521Z,55.84
2019-02-17T03:03:55.986Z,55.96
2019-02-17T03:04:59.468Z,56.18
2019-02-17T03:06:07.560Z,56.28
2019-02-17T03:07:11.077Z,56.49
2019-02-17T03:08:14.538Z,56.46
2019-02-17T03:09:18.131Z,56.58
2019-02-17T03:10:21.638Z,56.63
2019-02-17T03:11:25.069Z,56.56
2019-02-17T03:12:28.577Z,56.59
2019-02-17T03:13:32.106Z,56.77
2019-02-17T03:14:35.546Z,56.69
2019-02-17T03:15:39.052Z,56.84
2019-02-17T03:16:42.497Z,56.84
2019-02-17T03:17:45.965Z,56.73
2019-02-17T03:18:49.394Z,56.68
2019-02-17T03:19:52.832Z,56.84
2019-02-17T03:20:56.277Z,57.17
2019-02-17T03:21:59.710Z,57.23
2019-02-17T03:23:03.156Z,57.37
2019-02-17T03:24:06.594Z,57.41
2019-02-17T03:25:10.154Z,57.33
2019-02-17T03:26:13.592Z,57.49
2019-02-17T03:27:17.014Z,57.57
2019-02-17T03:28:20.479Z,57.47
2019-02-17T03:29:23.934Z,57.64
2019-02-17T03:30:27.379Z,57.57
2019-02-17T03:31:30.809Z,57.61
2019-02-17T03:32:34.245Z,57.58
2019-02-17T03:33:37.722Z,57.64
2019-02-17T03:34:41.156Z,57.73
2019-02-17T03:35:44.674Z,57.96
2019-02-17T03:36:48.167Z,58.16
2019-02-17T03:37:51.634Z,58.17
2019-02-17T03:38:55.067Z,58.32
2019-02-17T03:39:58.526Z,58.22
2019-02-17T03:41:01.967Z,58.56
2019-02-17T03:42:05.635Z,58.80
2019-02-17T03:43:09.145Z,58.86
2019-02-17T03:44:12.608Z,59.17
2019-02-17T03:45:16.035Z,58.93
2019-02-17T03:46:19.469Z,58.67
2019-02-17T03:47:22.929Z,58.37
2019-02-17T03:48:26.440Z,58.55
2019-02-17T03:49:29.961Z,58.48
2019-02-17T03:50:33.551Z,58.26
2019-02-17T03:51:37.055Z,58.27
2019-02-17T03:52:40.481Z,58.14
2019-02-17T03:53:43.933Z,57.89
2019-02-17T03:54:47.373Z,57.72
2019-02-17T03:55:50.806Z,57.68
2019-02-17T03:56:54.309Z,57.46
2019-02-17T03:57:57.755Z,57.39
2019-02-17T03:59:01.177Z,57.57
2019-02-17T04:00:16.597Z,57.45
2019-02-17T04:01:11.420Z,57.61
2019-02-17T04:02:14.918Z,57.62
2019-02-17T04:03:18.430Z,57.51
2019-02-17T04:04:21.931Z,57.73
2019-02-17T04:05:25.371Z,57.71
2019-02-17T04:06:28.965Z,57.70
2019-02-17T04:07:32.464Z,57.83
2019-02-17T04:08:35.969Z,57.97
2019-02-17T04:09:39.394Z,57.88
2019-02-17T04:10:42.983Z,57.79
2019-02-17T04:11:46.482Z,57.67
2019-02-17T04:12:49.948Z,57.54
2019-02-17T04:13:53.382Z,57.48
2019-02-17T04:14:56.987Z,57.58
2019-02-17T04:16:00.509Z,57.82
2019-02-17T04:17:04.030Z,57.90
2019-02-17T04:18:07.601Z,57.96
2019-02-17T04:19:11.101Z,57.94
2019-02-17T04:20:14.632Z,57.85
2019-02-17T04:21:18.072Z,57.94
2019-02-17T04:22:21.504Z,57.83
2019-02-17T04:23:31.280Z,57.86
2019-02-17T04:24:30.221Z,57.83
2019-02-17T04:25:33.658Z,57.11
2019-02-17T04:26:37.110Z,57.15
2019-02-17T04:27:40.563Z,56.82
2019-02-17T04:28:44.006Z,56.79
2019-02-17T04:29:47.520Z,56.38
2019-02-17T04:30:50.966Z,56.46
2019-02-17T04:31:54.417Z,56.30
2019-02-17T04:32:57.866Z,55.97
2019-02-17T04:34:01.276Z,55.85
2019-02-17T04:35:05.259Z,55.90
2019-02-17T04:36:08.687Z,55.83
2019-02-17T04:37:12.216Z,55.61
2019-02-17T04:38:15.722Z,55.58
2019-02-17T04:39:19.157Z,55.63
2019-02-17T04:40:22.591Z,55.46
2019-02-17T04:41:26.019Z,55.54
2019-02-17T04:42:29.471Z,55.50
2019-02-17T04:43:32.970Z,55.65
2019-02-17T04:44:36.411Z,55.71
2019-02-17T04:45:39.921Z,55.79
2019-02-17T04:46:43.348Z,55.84
2019-02-17T04:47:46.800Z,55.83
2019-02-17T04:48:50.237Z,55.89
2019-02-17T04:49:53.661Z,55.87
2019-02-17T04:50:57.154Z,55.79
2019-02-17T04:52:00.575Z,55.75
2019-02-17T04:53:04.026Z,55.66
2019-02-17T04:54:07.456Z,55.63
2019-02-17T04:55:10.897Z,55.71
2019-02-17T04:56:14.326Z,55.97
2019-02-17T04:57:17.755Z,55.90
2019-02-17T04:58:21.195Z,56.01
2019-02-17T04:59:24.644Z,56.11
2019-02-17T05:00:39.218Z,56.34
2019-02-17T05:01:33.202Z,56.42
2019-02-17T05:02:36.636Z,56.35
2019-02-17T05:03:40.089Z,56.37
2019-02-17T05:04:43.519Z,56.48
2019-02-17T05:05:47.017Z,56.61
2019-02-17T05:06:50.452Z,56.70
2019-02-17T05:07:53.892Z,56.78
2019-02-17T05:08:57.418Z,56.98
2019-02-17T05:10:00.873Z,57.17
2019-02-17T05:11:04.302Z,57.37
2019-02-17T05:12:07.735Z,57.47
2019-02-17T05:13:11.165Z,57.49
2019-02-17T05:14:14.620Z,57.58
2019-02-17T05:15:18.072Z,57.61
2019-02-17T05:16:21.498Z,57.60
2019-02-17T05:17:24.997Z,57.60
2019-02-17T05:18:28.425Z,57.48
2019-02-17T05:19:31.892Z,57.28
2019-02-17T05:20:35.320Z,57.15
2019-02-17T05:21:38.762Z,56.95
2019-02-17T05:22:42.206Z,57.10
2019-02-17T05:23:45.631Z,57.40
2019-02-17T05:24:49.081Z,57.49
2019-02-17T05:25:52.587Z,57.58
2019-02-17T05:26:56.008Z,57.48
2019-02-17T05:27:59.451Z,57.29
2019-02-17T05:29:02.922Z,57.27
2019-02-17T05:30:09.082Z,57.25
2019-02-17T05:31:12.507Z,57.19
2019-02-17T05:32:15.931Z,57.21
2019-02-17T05:33:19.357Z,57.38
2019-02-17T05:34:22.783Z,57.43
2019-02-17T05:35:26.310Z,57.73
2019-02-17T05:36:29.735Z,57.62
2019-02-17T05:37:33.171Z,57.59
2019-02-17T05:38:36.607Z,57.65
2019-02-17T05:39:40.049Z,57.54
2019-02-17T05:40:43.513Z,57.46
2019-02-17T05:41:46.914Z,57.60
2019-02-17T05:42:50.343Z,57.65
2019-02-17T05:43:53.760Z,57.68
2019-02-17T05:44:57.221Z,57.50
2019-02-17T05:46:00.719Z,57.47
2019-02-17T05:47:04.138Z,57.22
2019-02-17T05:48:07.560Z,57.19
2019-02-17T05:49:10.991Z,56.98
2019-02-17T05:50:14.430Z,56.64
2019-02-17T05:51:17.858Z,56.64
2019-02-17T05:52:21.293Z,56.77
2019-02-17T05:53:24.730Z,56.77
2019-02-17T05:54:28.157Z,56.72
2019-02-17T05:55:31.592Z,56.87
2019-02-17T05:56:35.084Z,56.91
2019-02-17T05:57:38.516Z,56.98
2019-02-17T05:58:41.933Z,57.01
2019-02-17T05:59:45.379Z,57.03
2019-02-17T06:00:48.903Z,56.98
2019-02-17T06:01:52.328Z,56.84
2019-02-17T06:02:55.772Z,56.81
2019-02-17T06:03:59.265Z,56.87
2019-02-17T06:05:02.766Z,56.91
2019-02-17T06:06:06.272Z,56.92
2019-02-17T06:07:09.716Z,57.04
2019-02-17T06:08:13.143Z,57.05
2019-02-17T06:09:16.562Z,57.00
2019-02-17T06:10:20.003Z,57.16
2019-02-17T06:11:23.455Z,57.39
2019-02-17T06:12:26.894Z,57.48
2019-02-17T06:13:30.316Z,57.70
2019-02-17T06:14:33.819Z,57.76
2019-02-17T06:15:37.257Z,58.08
2019-02-17T06:16:40.698Z,58.32
2019-02-17T06:17:44.122Z,58.40
2019-02-17T06:18:47.548Z,58.43
2019-02-17T06:19:51.113Z,58.13
2019-02-17T06:20:54.577Z,58.08
2019-02-17T06:21:57.988Z,57.85
2019-02-17T06:23:01.416Z,57.70
2019-02-17T06:24:04.911Z,57.55
2019-02-17T06:25:08.472Z,57.50
2019-02-17T06:26:11.931Z,57.47
2019-02-17T06:27:15.355Z,57.06
2019-02-17T06:28:18.763Z,57.14
2019-02-17T06:29:22.190Z,57.04
2019-02-17T06:30:25.614Z,57.23
2019-02-17T06:31:29.059Z,57.20
2019-02-17T06:32:32.488Z,57.11
2019-02-17T06:33:35.991Z,56.87
2019-02-17T06:34:39.409Z,56.48
2019-02-17T06:35:42.839Z,56.32
2019-02-17T06:36:46.281Z,56.19
2019-02-17T06:37:49.699Z,56.09
2019-02-17T06:38:53.185Z,56.01
2019-02-17T06:39:56.607Z,55.91
2019-02-17T06:41:00.108Z,56.01
2019-02-17T06:42:03.552Z,56.02
2019-02-17T06:43:06.977Z,56.09
2019-02-17T06:44:10.421Z,56.19
2019-02-17T06:45:13.913Z,56.20
2019-02-17T06:46:18.984Z,56.23
2019-02-17T06:47:24.078Z,56.18
2019-02-17T06:48:27.549Z,56.17
2019-02-17T06:49:30.973Z,56.00
2019-02-17T06:50:34.402Z,55.89
2019-02-17T06:51:37.848Z,55.37
2019-02-17T06:52:41.267Z,55.29
2019-02-17T06:53:44.687Z,55.05
2019-02-17T06:54:49.743Z,54.92
2019-02-17T06:55:57.809Z,54.70
2019-02-17T06:57:02.885Z,54.61
2019-02-17T06:58:06.322Z,54.54
2019-02-17T06:59:09.746Z,54.60
2019-02-17T07:00:14.949Z,54.61
2019-02-17T07:01:24.567Z,54.34
2019-02-17T07:02:23.899Z,54.16
2019-02-17T07:03:27.336Z,54.18
2019-02-17T07:04:43.917Z,54.22
2019-02-17T07:05:48.987Z,54.25
2019-02-17T07:06:54.062Z,54.35
2019-02-17T07:07:57.501Z,54.29
2019-02-17T07:09:00.911Z,54.15
2019-02-17T07:10:05.206Z,54.09
2019-02-17T07:11:08.619Z,53.89
2019-02-17T07:12:12.088Z,53.76
2019-02-17T07:13:15.518Z,53.48
2019-02-17T07:14:18.931Z,52.78
2019-02-17T07:15:22.432Z,53.21
2019-02-17T07:16:25.853Z,52.70
2019-02-17T07:17:29.326Z,52.57
2019-02-17T07:18:32.792Z,52.49
2019-02-17T07:19:36.203Z,52.41
2019-02-17T07:20:39.649Z,52.28
2019-02-17T07:21:43.060Z,51.75
2019-02-17T07:22:46.504Z,51.96
2019-02-17T07:23:49.928Z,51.87
2019-02-17T07:24:53.358Z,51.97
2019-02-17T07:25:56.798Z,52.02
2019-02-17T07:27:00.224Z,52.17
2019-02-17T07:28:03.678Z,52.09
2019-02-17T07:29:07.193Z,52.30
2019-02-17T07:30:10.757Z,52.40
2019-02-17T07:31:14.334Z,52.58
2019-02-17T07:32:17.756Z,52.32
2019-02-17T07:33:21.201Z,51.99
2019-02-17T07:34:24.644Z,51.83
2019-02-17T07:35:28.135Z,51.75
2019-02-17T07:36:31.636Z,51.52
2019-02-17T07:37:35.042Z,51.71
2019-02-17T07:38:38.487Z,51.11
2019-02-17T07:39:41.936Z,51.04
2019-02-17T07:40:45.379Z,51.15
2019-02-17T07:41:48.819Z,51.00
2019-02-17T07:42:52.262Z,51.02
2019-02-17T07:43:55.690Z,50.59
2019-02-17T07:44:59.140Z,50.93
2019-02-17T07:46:02.688Z,50.99
2019-02-17T07:47:06.136Z,50.89
2019-02-17T07:48:09.564Z,50.87
2019-02-17T07:49:12.994Z,50.66
2019-02-17T07:50:16.520Z,50.51
2019-02-17T07:51:19.949Z,50.30
2019-02-17T07:52:23.377Z,49.86
2019-02-17T07:53:26.782Z,49.82
2019-02-17T07:54:30.246Z,49.87
2019-02-17T07:55:33.672Z,49.97
2019-02-17T07:56:37.237Z,49.23
2019-02-17T07:57:40.689Z,49.14
2019-02-17T07:58:44.090Z,49.10
2019-02-17T07:59:47.535Z,49.04
2019-02-17T08:00:50.954Z,48.92
2019-02-17T08:01:54.384Z,48.94
2019-02-17T08:02:57.806Z,48.72
2019-02-17T08:04:01.233Z,48.79
2019-02-17T08:05:05.618Z,48.64
2019-02-17T08:06:09.041Z,48.46
2019-02-17T08:07:12.466Z,48.55
2019-02-17T08:08:16.028Z,48.47
2019-02-17T08:09:19.454Z,47.98
2019-02-17T08:10:22.892Z,48.07
2019-02-17T08:11:26.311Z,47.92
2019-02-17T08:12:29.805Z,46.99
2019-02-17T08:13:33.304Z,47.18
2019-02-17T08:14:36.739Z,46.71
2019-02-17T08:15:40.176Z,46.59
2019-02-17T08:16:43.615Z,46.79
2019-02-17T08:17:47.035Z,46.77
2019-02-17T08:18:50.534Z,46.55
2019-02-17T08:19:53.962Z,46.61
2019-02-17T08:20:57.400Z,46.46
2019-02-17T08:22:00.821Z,46.42
2019-02-17T08:23:04.354Z,45.32
2019-02-17T08:24:07.789Z,45.23
2019-02-17T08:25:20.993Z,45.02
2019-02-17T08:26:16.495Z,44.57
2019-02-17T08:27:19.985Z,43.96
2019-02-17T08:28:23.406Z,43.56
2019-02-17T08:29:26.825Z,42.45
2019-02-17T08:30:30.248Z,42.33
2019-02-17T08:31:33.703Z,41.85
2019-02-17T08:32:37.191Z,42.32
2019-02-17T08:33:40.703Z,42.27
2019-02-17T08:34:44.130Z,41.76
2019-02-17T08:35:47.639Z,41.68
2019-02-17T08:36:51.083Z,41.27
2019-02-17T08:37:54.516Z,41.48
2019-02-17T08:38:57.959Z,40.48
2019-02-17T08:40:01.383Z,40.29
2019-02-17T08:41:04.822Z,40.58
2019-02-17T08:42:08.245Z,40.60
2019-02-17T08:43:11.668Z,39.45
2019-02-17T08:44:15.104Z,39.44
2019-02-17T08:45:18.537Z,39.48
2019-02-17T08:46:21.995Z,39.62
2019-02-17T08:47:25.391Z,38.56
2019-02-17T08:48:28.832Z,38.97
2019-02-17T08:49:32.239Z,39.51
2019-02-17T08:50:35.663Z,38.88
2019-02-17T08:51:39.105Z,38.41
2019-02-17T08:52:42.527Z,38.78
2019-02-17T08:53:46.023Z,38.73
2019-02-17T08:54:49.430Z,39.01
2019-02-17T08:55:52.861Z,40.04
2019-02-17T08:56:56.301Z,38.79
2019-02-17T08:57:59.736Z,38.34
2019-02-17T08:59:03.225Z,38.74
2019-02-17T09:00:12.469Z,37.90
2019-02-17T09:01:15.931Z,37.90
2019-02-17T09:02:19.342Z,37.72
2019-02-17T09:03:22.761Z,37.82
2019-02-17T09:04:26.188Z,37.81
2019-02-17T09:05:29.678Z,37.57
2019-02-17T09:06:33.104Z,37.72
2019-02-17T09:07:36.552Z,37.64
2019-02-17T09:08:39.958Z,36.69
2019-02-17T09:09:43.387Z,36.65
2019-02-17T09:10:46.815Z,36.60
2019-02-17T09:11:50.243Z,36.43
2019-02-17T09:12:53.712Z,36.40
2019-02-17T09:13:57.132Z,36.55
2019-02-17T09:15:00.634Z,36.13
2019-02-17T09:16:04.191Z,36.39
2019-02-17T09:17:07.685Z,36.05
2019-02-17T09:18:11.194Z,35.90
2019-02-17T09:19:14.704Z,35.67
2019-02-17T09:20:18.097Z,36.24
2019-02-17T09:21:21.527Z,37.14
2019-02-17T09:22:25.041Z,37.63
2019-02-17T09:23:28.490Z,38.27
2019-02-17T09:24:31.984Z,37.51
2019-02-17T09:25:35.414Z,37.66
2019-02-17T09:26:38.921Z,37.66
2019-02-17T09:27:42.367Z,37.09
2019-02-17T09:28:45.803Z,36.91
2019-02-17T09:29:49.222Z,37.66
2019-02-17T09:30:52.719Z,37.00
2019-02-17T09:31:56.139Z,36.52
2019-02-17T09:32:59.607Z,36.55
2019-02-17T09:34:03.035Z,36.04
2019-02-17T09:35:06.686Z,36.52
2019-02-17T09:36:10.107Z,36.43
2019-02-17T09:37:13.592Z,36.43
2019-02-17T09:38:17.261Z,35.20
2019-02-17T09:39:20.816Z,35.20
2019-02-17T09:40:24.495Z,35.04
2019-02-17T09:41:28.026Z,35.00
2019-02-17T09:42:31.569Z,34.22
2019-02-17T09:43:34.992Z,34.00
2019-02-17T09:44:38.413Z,33.92
2019-02-17T09:45:41.907Z,34.16
2019-02-17T09:46:45.438Z,34.26
2019-02-17T09:47:48.854Z,33.82
2019-02-17T09:48:52.370Z,33.89
2019-02-17T09:49:55.791Z,33.89
2019-02-17T09:50:59.210Z,33.48
2019-02-17T09:52:02.702Z,33.90
2019-02-17T09:53:06.216Z,34.02
2019-02-17T09:54:09.672Z,34.02
2019-02-17T09:55:13.248Z,33.58
2019-02-17T09:56:16.684Z,33.77
2019-02-17T09:57:20.103Z,33.82
2019-02-17T09:58:23.545Z,33.57
2019-02-17T09:59:27.076Z,34.90
2019-02-17T10:00:30.607Z,34.90
2019-02-17T10:01:34.040Z,34.24
2019-02-17T10:02:37.468Z,34.36
2019-02-17T10:03:40.907Z,34.37
2019-02-17T10:04:44.421Z,33.99
2019-02-17T10:05:48.003Z,33.99
2019-02-17T10:06:51.460Z,33.19
2019-02-17T10:07:54.907Z,33.32
2019-02-17T10:08:58.393Z,32.84
2019-02-17T10:10:01.838Z,32.57
2019-02-17T10:11:05.359Z,32.50
2019-02-17T10:12:08.803Z,32.25
2019-02-17T10:13:12.306Z,32.39
2019-02-17T10:14:15.782Z,32.55
2019-02-17T10:15:19.237Z,32.26
2019-02-17T10:16:22.665Z,32.25
2019-02-17T10:17:26.182Z,31.83
2019-02-17T10:18:29.597Z,31.85
2019-02-17T10:19:33.024Z,32.45
2019-02-17T10:20:36.469Z,32.08
2019-02-17T10:21:39.901Z,31.56
2019-02-17T10:22:43.398Z,31.04
2019-02-17T10:23:46.828Z,31.41
2019-02-17T10:24:50.332Z,31.48
2019-02-17T10:25:53.775Z,31.45
2019-02-17T10:26:57.222Z,31.29
2019-02-17T10:28:00.705Z,31.25
2019-02-17T10:29:04.209Z,31.65
2019-02-17T10:30:12.839Z,31.56
2019-02-17T10:31:16.356Z,31.51
2019-02-17T10:32:19.798Z,31.28
2019-02-17T10:33:23.233Z,30.75
2019-02-17T10:34:26.674Z,31.24
2019-02-17T10:35:30.114Z,31.14
2019-02-17T10:36:33.566Z,30.43
2019-02-17T10:37:37.018Z,30.26
2019-02-17T10:38:40.465Z,30.14
2019-02-17T10:39:44.131Z,30.03
2019-02-17T10:40:47.637Z,29.63
2019-02-17T10:41:51.171Z,29.29
2019-02-17T10:42:54.608Z,29.15
2019-02-17T10:43:58.040Z,29.18
2019-02-17T10:45:01.464Z,29.11
2019-02-17T10:46:06.118Z,28.67
2019-02-17T10:47:09.768Z,29.61
2019-02-17T10:48:13.283Z,28.53
2019-02-17T10:49:16.722Z,28.68
2019-02-17T10:50:20.146Z,28.75
2019-02-17T10:51:23.574Z,28.54
2019-02-17T10:52:27.036Z,28.64
2019-02-17T10:53:30.472Z,26.97
2019-02-17T10:54:33.972Z,27.47
2019-02-17T10:55:37.406Z,27.80
2019-02-17T10:56:40.910Z,26.98
2019-02-17T10:57:44.355Z,27.98
2019-02-17T10:58:47.993Z,26.95
2019-02-17T10:59:51.368Z,26.78
2019-02-17T11:00:54.844Z,26.63
2019-02-17T11:01:58.277Z,25.68
2019-02-17T11:03:05.054Z,25.04
2019-02-17T11:04:09.357Z,25.84
2019-02-17T11:05:12.922Z,25.25
2019-02-17T11:06:16.363Z,25.30
2019-02-17T11:07:19.783Z,24.76
2019-02-17T11:08:23.298Z,24.00
2019-02-17T11:09:26.817Z,24.27
2019-02-17T11:10:30.369Z,23.90
2019-02-17T11:11:33.897Z,24.38
2019-02-17T11:12:37.334Z,24.32
2019-02-17T11:13:40.860Z,22.39
2019-02-17T11:14:44.300Z,22.82
2019-02-17T11:15:47.750Z,23.04
2019-02-17T11:16:51.250Z,24.12
2019-02-17T11:17:54.751Z,23.64
2019-02-17T11:18:58.201Z,24.50
2019-02-17T11:20:01.652Z,25.63
2019-02-17T11:21:05.096Z,24.28
2019-02-17T11:22:08.527Z,24.76
2019-02-17T11:23:11.991Z,24.73
2019-02-17T11:24:15.568Z,24.92
2019-02-17T11:25:19.079Z,23.53
2019-02-17T11:26:22.505Z,23.53
2019-02-17T11:27:25.950Z,23.27
2019-02-17T11:28:29.511Z,23.33
2019-02-17T11:29:32.957Z,24.33
2019-02-17T11:30:36.473Z,24.29
2019-02-17T11:31:39.973Z,23.96
2019-02-17T11:32:43.476Z,24.45
2019-02-17T11:33:46.944Z,24.18
2019-02-17T11:34:50.548Z,24.09
2019-02-17T11:35:54.053Z,24.46
2019-02-17T11:36:57.493Z,24.55
2019-02-17T11:38:00.915Z,24.34
2019-02-17T11:39:07.924Z,24.36
2019-02-17T11:40:12.644Z,25.43
2019-02-17T11:41:16.045Z,26.03
2019-02-17T11:42:19.476Z,26.46
2019-02-17T11:43:22.903Z,27.67
2019-02-17T11:44:26.325Z,26.21
2019-02-17T11:45:30.109Z,25.82
2019-02-17T11:46:33.610Z,26.28
2019-02-17T11:47:37.049Z,25.94
2019-02-17T11:48:40.497Z,24.64
2019-02-17T11:49:43.960Z,24.08
2019-02-17T11:50:47.512Z,24.43
2019-02-17T11:51:50.955Z,24.34
2019-02-17T11:52:54.377Z,24.47
2019-02-17T11:53:57.811Z,24.49
2019-02-17T11:55:01.246Z,24.24
2019-02-17T11:56:04.852Z,24.42
2019-02-17T11:57:08.304Z,24.27
2019-02-17T11:58:11.737Z,24.14
2019-02-17T11:59:15.165Z,24.31
2019-02-17T12:00:20.765Z,24.59
2019-02-17T12:01:24.351Z,24.77
2019-02-17T12:02:27.782Z,24.37
2019-02-17T12:03:31.386Z,24.12
2019-02-17T12:04:34.822Z,23.30
2019-02-17T12:05:38.251Z,23.11
2019-02-17T12:06:41.702Z,22.50
2019-02-17T12:07:45.275Z,22.87
2019-02-17T12:08:49.135Z,22.37
2019-02-17T12:09:52.575Z,22.50
2019-02-17T12:10:56.003Z,23.13
2019-02-17T12:11:59.453Z,23.41
2019-02-17T12:13:02.918Z,21.98
2019-02-17T12:14:06.350Z,22.03
2019-02-17T12:15:12.115Z,21.68
2019-02-17T12:16:15.541Z,22.10
2019-02-17T12:17:18.998Z,21.55
2019-02-17T12:18:22.431Z,21.40
2019-02-17T12:19:25.856Z,21.94
2019-02-17T12:20:33.593Z,23.64
2019-02-17T12:21:38.663Z,23.81
2019-02-17T12:22:42.135Z,22.06
2019-02-17T12:23:47.206Z,21.65
2019-02-17T12:24:51.819Z,21.97
2019-02-17T12:25:56.924Z,22.73
2019-02-17T12:27:14.009Z,22.80
2019-02-17T12:28:21.817Z,22.00
2019-02-17T12:29:32.679Z,22.55
2019-02-17T12:30:36.946Z,21.35
2019-02-17T12:31:40.643Z,20.04
2019-02-17T12:32:44.166Z,20.24
2019-02-17T12:33:47.661Z,20.28
2019-02-17T12:34:51.089Z,19.18
2019-02-17T12:35:54.543Z,17.82
2019-02-17T12:36:57.962Z,17.94
2019-02-17T12:38:01.418Z,17.13
2019-02-17T12:39:08.179Z,17.05
2019-02-17T12:40:11.860Z,16.20
2019-02-17T12:41:15.308Z,15.33
2019-02-17T12:42:18.745Z,14.69
2019-02-17T12:43:22.202Z,13.96
2019-02-17T12:44:25.801Z,13.78
2019-02-17T12:45:29.224Z,13.70
2019-02-17T12:46:32.659Z,13.36
2019-02-17T12:47:36.114Z,13.28
2019-02-17T12:48:39.897Z,13.57
2019-02-17T12:49:43.330Z,13.52
2019-02-17T12:50:47.104Z,13.28
2019-02-17T12:51:50.547Z,13.23
2019-02-17T12:52:53.975Z,12.95
2019-02-17T12:53:57.432Z,13.15
2019-02-17T12:55:00.878Z,13.71
2019-02-17T12:56:04.436Z,14.01
2019-02-17T12:57:07.873Z,14.65
2019-02-17T12:58:11.371Z,14.37
2019-02-17T12:59:14.819Z,14.67
2019-02-17T13:00:18.599Z,14.83
2019-02-17T13:01:22.026Z,14.85
2019-02-17T13:02:25.459Z,14.57
2019-02-17T13:03:28.987Z,15.20
2019-02-17T13:04:32.422Z,14.69
2019-02-17T13:05:35.895Z,14.17
2019-02-17T13:06:39.377Z,13.58
2019-02-17T13:07:43.101Z,12.79
2019-02-17T13:08:46.484Z,13.13
2019-02-17T13:09:49.932Z,12.71
2019-02-17T13:10:53.387Z,12.46
2019-02-17T13:11:56.891Z,13.02
2019-02-17T13:13:00.332Z,12.75
2019-02-17T13:14:03.850Z,12.15
2019-02-17T13:15:14.738Z,12.11
2019-02-17T13:16:18.405Z,12.15
2019-02-17T13:17:21.881Z,12.37
2019-02-17T13:18:25.314Z,12.30
2019-02-17T13:19:28.735Z,12.07
2019-02-17T13:20:32.190Z,11.81
2019-02-17T13:21:35.598Z,11.40
2019-02-17T13:22:39.105Z,11.67
2019-02-17T13:23:42.525Z,11.61
2019-02-17T13:24:45.940Z,11.38
2019-02-17T13:25:49.405Z,11.47
2019-02-17T13:26:52.948Z,10.94
2019-02-17T13:27:56.364Z,10.81
2019-02-17T13:29:01.370Z,10.99
2019-02-17T13:30:22.557Z,10.99
2019-02-17T13:31:26.124Z,10.72
2019-02-17T13:32:29.551Z,11.16
2019-02-17T13:33:39.267Z,11.20
2019-02-17T13:34:38.125Z,11.88
2019-02-17T13:35:41.621Z,11.78
2019-02-17T13:36:45.078Z,11.89
2019-02-17T13:37:48.529Z,12.30
2019-02-17T13:38:51.965Z,12.26
2019-02-17T13:39:55.489Z,12.72